Time;durP1;ratioP1;P1;durP2;ratioP2;P2;SDS_P1;SDS_P2;PMS_P1;PMS_P2;Temp;Humidity;BMP_temperature;BMP_pressure;BME280_temperature;BME280_humidity;BME280_pressure;Samples;Min_cycle;Max_cycle;Signal;HPM_P1;HPM_P2
2021/08/13 00:02:02;;;;;;;;;;;;;;;15.29;52.27;101472.73;1650724;85;20134;-79
2021/08/13 00:04:28;;;;;;;;;;;;;;;15.26;52.35;101468.89;1616004;86;20104;-79
2021/08/13 00:06:54;;;;;;;;;;;;;;;15.23;52.37;101468.52;1661169;85;20139;-79
2021/08/13 00:09:23;;;;;;;;;;;;;;;15.17;52.38;101470.80;1662740;85;20095;-79
2021/08/13 00:11:49;;;;;;;;;;;;;;;15.13;52.46;101467.00;1660454;86;20112;-79
2021/08/13 00:14:34;;;;;;;;;;;;;;;15.11;52.54;101470.94;1622965;87;20104;-79
2021/08/13 00:17:02;;;;;;;;;;;;;;;15.08;52.62;101471.00;1605739;89;20121;-79
2021/08/13 00:19:29;;;;;;;;;;;;;;;15.06;52.84;101475.86;1600785;88;20135;-79
2021/08/13 00:21:55;;;;;;;;;;;;;;;15.02;52.81;101471.16;1613242;87;20114;-79
2021/08/13 00:24:23;;;;;;;;;;;;;;;14.99;52.96;101473.82;1638680;86;20096;-79
2021/08/13 00:26:49;;;;;;;;;;;;;;;14.97;52.99;101472.14;1646763;85;20213;-79
2021/08/13 00:29:15;;;;;;;;;;;;;;;14.94;52.97;101470.45;1650631;86;20163;-79
2021/08/13 00:31:42;;;;;;;;;;;;;;;14.90;53.10;101471.41;1600651;86;20096;-79
2021/08/13 00:34:09;;;;;;;;;;;;;;;14.90;53.16;101473.56;1649160;85;20101;-79
2021/08/13 00:36:35;;;;;;;;;;;;;;;14.86;53.14;101472.35;1644930;85;20233;-79
2021/08/13 00:39:19;;;;;;;;;;;;;;;14.83;53.15;101473.27;1674045;84;20125;-79
2021/08/13 00:41:45;;;;;;;;;;;;;;;14.77;53.33;101470.78;1691439;84;20101;-79
2021/08/13 00:44:11;;;;;;;;;;;;;;;14.74;53.33;101473.89;1685385;83;20126;-79
2021/08/13 00:46:37;;;;;;;;;;;;;;;14.71;53.39;101465.70;1683190;84;20132;-79
2021/08/13 00:49:03;;;;;;;;;;;;;;;14.71;53.45;101471.34;1684274;83;20868;-79
2021/08/13 00:51:29;;;;;;;;;;;;;;;14.70;53.52;101465.73;1691162;84;20171;-79
2021/08/13 00:53:55;;;;;;;;;;;;;;;14.69;53.57;101462.70;1680406;84;20109;-79
2021/08/13 00:56:21;;;;;;;;;;;;;;;14.67;53.68;101464.48;1690167;84;20089;-79
2021/08/13 00:58:47;;;;;;;;;;;;;;;14.67;53.62;101468.39;1652787;84;20152;-79
2021/08/13 01:01:14;;;;;;;;;;;;;;;14.62;53.74;101471.52;1687395;84;20129;-79
2021/08/13 01:03:40;;;;;;;;;;;;;;;14.60;53.85;101468.95;1690984;84;20206;-79
2021/08/13 01:06:14;;;;;;;;;;;;;;;14.54;53.83;101462.59;1690943;83;20147;-79
2021/08/13 01:08:41;;;;;;;;;;;;;;;14.48;53.90;101470.06;1685724;84;20137;-79
2021/08/13 01:11:27;;;;;;;;;;;;;;;14.39;53.88;101466.73;1684330;84;20161;-79
2021/08/13 01:13:56;;;;;;;;;;;;;;;14.33;54.04;101462.94;1683459;84;20214;-79
2021/08/13 01:16:26;;;;;;;;;;;;;;;14.33;54.19;101471.61;1684452;84;20235;-79
2021/08/13 01:18:58;;;;;;;;;;;;;;;14.35;54.24;101471.58;1675619;84;20117;-79
2021/08/13 01:21:36;;;;;;;;;;;;;;;14.32;54.22;101468.59;1684548;84;20103;-79
2021/08/13 01:24:09;;;;;;;;;;;;;;;14.32;54.29;101467.73;1691665;84;20107;-79
2021/08/13 01:26:39;;;;;;;;;;;;;;;14.30;54.34;101469.05;1683577;84;20087;-79
2021/08/13 01:29:19;;;;;;;;;;;;;;;14.28;54.46;101469.97;1682758;84;20181;-79
2021/08/13 01:32:02;;;;;;;;;;;;;;;14.28;54.52;101467.37;1646049;84;20094;-79
2021/08/13 01:34:29;;;;;;;;;;;;;;;14.29;54.63;101469.94;1649590;84;20151;-79
2021/08/13 01:36:57;;;;;;;;;;;;;;;14.28;54.56;101466.92;1669027;84;20123;-79
2021/08/13 01:39:26;;;;;;;;;;;;;;;14.26;54.52;101473.90;1676700;84;20109;-79
2021/08/13 01:41:52;;;;;;;;;;;;;;;14.14;54.56;101473.66;1677799;84;20399;-79
2021/08/13 01:44:20;;;;;;;;;;;;;;;14.12;54.70;101472.83;1651014;86;20128;-79
2021/08/13 01:46:46;;;;;;;;;;;;;;;14.11;54.73;101476.76;1611676;87;20128;-79
2021/08/13 01:49:14;;;;;;;;;;;;;;;14.09;54.78;101468.13;1631095;87;20154;-79
2021/08/13 01:51:41;;;;;;;;;;;;;;;14.06;54.82;101467.73;1620996;86;20113;-79
2021/08/13 01:54:07;;;;;;;;;;;;;;;14.02;54.91;101473.90;1649229;86;20134;-79
2021/08/13 01:56:34;;;;;;;;;;;;;;;14.00;54.99;101472.20;1618690;87;20116;-79
2021/08/13 01:59:01;;;;;;;;;;;;;;;13.98;55.01;101476.13;1629009;87;20116;-78
2021/08/13 02:01:30;;;;;;;;;;;;;;;13.96;55.03;101471.39;1610601;88;20146;-79
2021/08/13 02:03:56;;;;;;;;;;;;;;;13.88;55.00;101473.26;1628158;86;20099;-79
2021/08/13 02:06:23;;;;;;;;;;;;;;;13.85;55.15;101468.11;1637152;86;20165;-79
2021/08/13 02:08:50;;;;;;;;;;;;;;;13.86;55.21;101467.23;1635619;86;20470;-79
2021/08/13 02:11:17;;;;;;;;;;;;;;;13.86;55.38;101471.13;1614346;86;20304;-79
2021/08/13 02:13:43;;;;;;;;;;;;;;;13.84;55.39;101467.69;1640080;86;20110;-79
2021/08/13 02:16:11;;;;;;;;;;;;;;;13.85;55.42;101474.61;1603942;88;20137;-79
2021/08/13 02:18:39;;;;;;;;;;;;;;;13.81;55.36;101471.20;1625741;86;20108;-79
2021/08/13 02:21:07;;;;;;;;;;;;;;;13.78;55.49;101475.58;1615632;84;548638;-79
2021/08/13 02:23:33;;;;;;;;;;;;;;;13.75;55.51;101474.33;1624310;85;20111;-79
2021/08/13 02:25:59;;;;;;;;;;;;;;;13.74;55.56;101469.57;1600708;86;20110;-79
2021/08/13 02:28:27;;;;;;;;;;;;;;;13.74;55.61;101472.17;1648137;86;20132;-79
2021/08/13 02:30:53;;;;;;;;;;;;;;;13.72;55.64;101474.37;1647065;86;21093;-79
2021/08/13 02:33:20;;;;;;;;;;;;;;;13.70;55.71;101475.70;1640070;86;20105;-79
2021/08/13 02:35:46;;;;;;;;;;;;;;;13.69;55.69;101475.28;1638656;86;20114;-79
2021/08/13 02:38:18;;;;;;;;;;;;;;;13.66;55.68;101472.73;1634026;86;20091;-80
2021/08/13 02:40:54;;;;;;;;;;;;;;;13.61;55.68;101473.67;1622711;87;20144;-80
2021/08/13 02:43:33;;;;;;;;;;;;;;;13.52;55.80;101472.92;1633607;86;20108;-80
2021/08/13 02:46:00;;;;;;;;;;;;;;;13.53;55.91;101470.75;1640289;86;20088;-79
2021/08/13 02:48:27;;;;;;;;;;;;;;;13.53;56.06;101477.69;1640449;86;20096;-79
2021/08/13 02:50:55;;;;;;;;;;;;;;;13.48;55.94;101480.81;1639007;86;20126;-79
2021/08/13 02:53:22;;;;;;;;;;;;;;;13.46;56.04;101481.28;1627156;86;20085;-79
2021/08/13 02:56:03;;;;;;;;;;;;;;;13.44;56.08;101475.25;1643874;86;20104;-79
2021/08/13 02:58:50;;;;;;;;;;;;;;;13.41;56.14;101474.84;1640091;86;20456;-79
2021/08/13 03:01:20;;;;;;;;;;;;;;;13.38;56.25;101478.78;1631299;86;20100;-79
2021/08/13 03:03:47;;;;;;;;;;;;;;;13.38;56.36;101474.89;1637161;86;20108;-79
2021/08/13 03:06:15;;;;;;;;;;;;;;;13.40;56.29;101473.13;1648131;86;20096;-79
2021/08/13 03:08:41;;;;;;;;;;;;;;;13.37;56.33;101480.97;1646063;86;20096;-79
2021/08/13 03:11:09;;;;;;;;;;;;;;;13.36;56.33;101477.95;1650814;86;20108;-79
2021/08/13 03:13:35;;;;;;;;;;;;;;;13.35;56.34;101476.67;1637101;86;20452;-79
2021/08/13 03:16:02;;;;;;;;;;;;;;;13.34;56.45;101484.90;1635927;86;20102;-79
2021/08/13 03:18:29;;;;;;;;;;;;;;;13.33;56.55;101483.63;1638530;86;20689;-79
2021/08/13 03:20:56;;;;;;;;;;;;;;;13.31;56.55;101484.08;1639675;86;20094;-78
2021/08/13 03:23:22;;;;;;;;;;;;;;;13.30;56.66;101484.96;1647881;86;20819;-78
2021/08/13 03:25:48;;;;;;;;;;;;;;;13.30;56.71;101478.03;1639347;86;20091;-78
2021/08/13 03:28:14;;;;;;;;;;;;;;;13.29;56.73;101474.16;1637812;86;20152;-78
2021/08/13 03:30:43;;;;;;;;;;;;;;;13.24;56.70;101477.67;1636759;86;20431;-78
2021/08/13 03:33:10;;;;;;;;;;;;;;;13.24;56.89;101474.21;1643628;86;20112;-79
2021/08/13 03:35:37;;;;;;;;;;;;;;;13.22;56.76;101475.53;1649672;86;20112;-79
2021/08/13 03:38:03;;;;;;;;;;;;;;;13.22;56.94;101459.95;1640957;86;20963;-79
2021/08/13 03:40:29;;;;;;;;;;;;;;;13.22;56.90;101472.08;1633694;86;20197;-79
2021/08/13 03:42:55;;;;;;;;;;;;;;;13.18;56.89;101468.66;1637378;86;20467;-79
2021/08/13 03:45:21;;;;;;;;;;;;;;;13.19;57.04;101473.41;1631985;86;20797;-79
2021/08/13 03:47:47;;;;;;;;;;;;;;;13.17;57.02;101478.63;1600129;86;20195;-79
2021/08/13 03:50:13;;;;;;;;;;;;;;;13.18;57.13;101471.25;1644835;84;20199;-79
2021/08/13 03:52:39;;;;;;;;;;;;;;;13.25;57.28;101475.93;1640578;86;20235;-79
2021/08/13 03:55:06;;;;;;;;;;;;;;;13.30;57.30;101471.53;1644354;86;20591;-79
2021/08/13 03:57:32;;;;;;;;;;;;;;;13.29;57.14;101465.06;1639450;86;20194;-78
2021/08/13 03:59:58;;;;;;;;;;;;;;;13.28;57.25;101464.64;1633474;86;21830;-79
2021/08/13 04:02:24;;;;;;;;;;;;;;;13.30;57.28;101462.88;1638596;86;20526;-79
2021/08/13 04:04:50;;;;;;;;;;;;;;;13.31;57.43;101455.52;1645852;86;20730;-79
2021/08/13 04:07:17;;;;;;;;;;;;;;;13.31;57.47;101454.21;1634100;86;21133;-79
2021/08/13 04:09:43;;;;;;;;;;;;;;;13.35;57.61;101451.99;1596370;88;21003;-79
2021/08/13 04:12:10;;;;;;;;;;;;;;;13.38;57.62;101449.35;1637850;86;21026;-79
2021/08/13 04:14:36;;;;;;;;;;;;;;;13.39;57.53;101449.33;1641532;86;20235;-79
2021/08/13 04:17:02;;;;;;;;;;;;;;;13.36;57.47;101445.91;1641973;86;20249;-79
2021/08/13 04:19:28;;;;;;;;;;;;;;;13.34;57.75;101446.38;1639100;86;20678;-79
2021/08/13 04:21:54;;;;;;;;;;;;;;;13.42;57.91;101445.83;1646250;86;20972;-79
2021/08/13 04:24:20;;;;;;;;;;;;;;;13.53;57.98;101451.70;1651249;86;20410;-79
2021/08/13 04:26:46;;;;;;;;;;;;;;;13.63;58.06;101442.88;1629682;86;21119;-79
2021/08/13 04:29:12;;;;;;;;;;;;;;;13.75;57.94;101448.34;1642625;86;20230;-79
2021/08/13 04:31:38;;;;;;;;;;;;;;;13.75;57.74;101450.50;1603150;86;20189;-79
2021/08/13 04:34:05;;;;;;;;;;;;;;;13.76;58.01;101448.75;1619229;86;20428;-79
2021/08/13 04:36:32;;;;;;;;;;;;;;;13.86;58.01;101446.42;1635522;86;20509;-79
2021/08/13 04:38:58;;;;;;;;;;;;;;;13.94;58.19;101450.20;1634320;86;21279;-79
2021/08/13 04:41:24;;;;;;;;;;;;;;;14.03;58.24;101448.75;1630216;86;20242;-79
2021/08/13 04:43:53;;;;;;;;;;;;;;;14.10;58.09;101450.33;1640582;86;21015;-79
2021/08/13 04:46:19;;;;;;;;;;;;;;;14.15;58.26;101446.77;1628336;86;21096;-79
2021/08/13 04:48:45;;;;;;;;;;;;;;;14.22;58.31;101448.38;1629091;86;20591;-79
2021/08/13 04:51:11;;;;;;;;;;;;;;;14.29;58.35;101446.97;1627472;86;21013;-79
2021/08/13 04:53:37;;;;;;;;;;;;;;;14.38;58.47;101453.31;1628131;86;21005;-79
2021/08/13 04:56:04;;;;;;;;;;;;;;;14.51;58.50;101453.53;1627115;86;20528;-79
2021/08/13 04:58:33;;;;;;;;;;;;;;;14.64;58.53;101454.13;1625906;86;20695;-78
2021/08/13 05:00:59;;;;;;;;;;;;;;;14.75;58.56;101451.73;1625658;86;20290;-78
2021/08/13 05:03:26;;;;;;;;;;;;;;;14.88;58.60;101448.44;1621174;86;20495;-79
2021/08/13 05:05:56;;;;;;;;;;;;;;;15.01;58.66;101453.81;1613444;86;20164;-79
2021/08/13 05:08:22;;;;;;;;;;;;;;;15.14;58.66;101448.73;1617234;87;20183;-79
2021/08/13 05:10:48;;;;;;;;;;;;;;;15.30;58.72;101458.82;1622616;87;20187;-79
2021/08/13 05:13:14;;;;;;;;;;;;;;;15.46;58.70;101458.45;1618110;86;20202;-79
2021/08/13 05:15:40;;;;;;;;;;;;;;;15.64;58.85;101452.41;1627082;86;20782;-79
2021/08/13 05:18:07;;;;;;;;;;;;;;;15.93;59.03;101456.48;1620135;88;20138;-79
2021/08/13 05:20:33;;;;;;;;;;;;;;;16.34;59.07;101457.16;1605552;87;20231;-79
2021/08/13 05:23:06;;;;;;;;;;;;;;;16.80;59.04;101469.38;1620369;87;20197;-78
2021/08/13 05:25:32;;;;;;;;;;;;;;;17.37;58.94;101463.77;1633682;86;20107;-78
2021/08/13 05:27:58;;;;;;;;;;;;;;;17.99;58.57;101463.09;1638851;87;20445;-78
2021/08/13 05:30:24;;;;;;;;;;;;;;;18.51;58.52;101456.91;1632937;86;20719;-78
2021/08/13 05:32:52;;;;;;;;;;;;;;;19.09;58.28;101453.93;1621149;87;20107;-78
2021/08/13 05:35:17;;;;;;;;;;;;;;;19.62;58.14;101458.41;1628308;86;20095;-78
2021/08/13 05:37:44;;;;;;;;;;;;;;;20.23;57.98;101458.48;1634827;86;20770;-78
2021/08/13 05:40:11;;;;;;;;;;;;;;;20.71;57.78;101463.38;1627106;87;20102;-78
2021/08/13 05:42:38;;;;;;;;;;;;;;;21.20;57.29;101460.27;1631455;87;20141;-78
2021/08/13 05:45:05;;;;;;;;;;;;;;;21.67;57.40;101465.45;1635333;86;20091;-78
2021/08/13 05:47:38;;;;;;;;;;;;;;;22.20;57.13;101459.77;1643710;86;20108;-78
2021/08/13 05:50:06;;;;;;;;;;;;;;;22.80;56.92;101462.78;1653961;86;20552;-78
2021/08/13 05:52:32;;;;;;;;;;;;;;;23.44;56.67;101462.69;1645268;86;20104;-78
2021/08/13 05:54:57;;;;;;;;;;;;;;;24.05;56.34;101469.28;1643604;86;20588;-78
2021/08/13 05:57:24;;;;;;;;;;;;;;;24.52;56.09;101471.36;1634260;86;20127;-78
2021/08/13 05:59:50;;;;;;;;;;;;;;;24.90;55.86;101469.02;1642993;86;20190;-78
2021/08/13 06:02:19;;;;;;;;;;;;;;;25.24;55.79;101461.13;1636759;86;20826;-78
2021/08/13 06:04:45;;;;;;;;;;;;;;;25.69;55.71;101459.48;1636973;86;20196;-79
2021/08/13 06:07:14;;;;;;;;;;;;;;;25.78;55.30;101455.84;1636077;86;20223;-79
2021/08/13 06:09:40;;;;;;;;;;;;;;;26.18;55.40;101461.47;1591049;87;20194;-79
2021/08/13 06:12:07;;;;;;;;;;;;;;;26.50;55.16;101459.78;1628011;86;20202;-79
2021/08/13 06:14:33;;;;;;;;;;;;;;;26.82;54.81;101458.83;1636044;86;20219;-79
2021/08/13 06:17:00;;;;;;;;;;;;;;;26.86;54.59;101465.14;1634543;87;20320;-79
2021/08/13 06:19:26;;;;;;;;;;;;;;;27.13;54.63;101464.98;1630716;86;20175;-82
2021/08/13 06:21:52;;;;;;;;;;;;;;;27.50;54.43;101464.97;1632923;87;20151;-80
2021/08/13 06:24:18;;;;;;;;;;;;;;;27.75;54.15;101466.66;1640598;86;20212;-80
2021/08/13 06:26:45;;;;;;;;;;;;;;;27.82;54.05;101472.73;1614606;86;20240;-80
2021/08/13 06:29:11;;;;;;;;;;;;;;;28.02;53.97;101472.57;1610156;87;20145;-80
2021/08/13 06:31:37;;;;;;;;;;;;;;;28.37;53.82;101469.88;1589229;88;20217;-80
2021/08/13 06:34:03;;;;;;;;;;;;;;;28.65;53.53;101479.20;1611151;89;20296;-80
2021/08/13 06:36:29;;;;;;;;;;;;;;;28.98;53.33;101478.39;1611780;89;20284;-80
2021/08/13 06:38:55;;;;;;;;;;;;;;;29.27;52.98;101478.20;1610942;88;20930;-80
2021/08/13 06:41:22;;;;;;;;;;;;;;;29.42;52.71;101478.81;1609756;87;20264;-80
2021/08/13 06:43:48;;;;;;;;;;;;;;;29.64;52.58;101480.53;1588620;87;20254;-84
2021/08/13 06:46:14;;;;;;;;;;;;;;;29.84;52.20;101474.39;1611595;87;20280;-80
2021/08/13 06:48:46;;;;;;;;;;;;;;;30.01;52.24;101478.35;1589435;89;20254;-82
2021/08/13 06:51:12;;;;;;;;;;;;;;;30.18;51.69;101478.23;1608328;87;20217;-82
2021/08/13 06:53:38;;;;;;;;;;;;;;;30.43;51.70;101472.98;1608977;88;20328;-82
2021/08/13 06:56:04;;;;;;;;;;;;;;;30.59;51.33;101474.23;1587141;89;20268;-82
2021/08/13 06:58:30;;;;;;;;;;;;;;;30.87;51.24;101477.13;1594705;88;20237;-82
2021/08/13 07:00:59;;;;;;;;;;;;;;;31.20;50.86;101473.30;1610829;88;20228;-82
2021/08/13 07:03:25;;;;;;;;;;;;;;;31.47;50.39;101475.32;1611120;87;20266;-83
2021/08/13 07:05:50;;;;;;;;;;;;;;;31.55;50.94;101484.34;1591782;87;20292;-80
2021/08/13 07:08:18;;;;;;;;;;;;;;;31.66;50.87;101484.70;1609130;88;20188;-81
2021/08/13 07:10:44;;;;;;;;;;;;;;;31.82;50.23;101478.80;1612128;87;20221;-81
2021/08/13 07:13:10;;;;;;;;;;;;;;;31.96;49.88;101478.36;1612384;88;20201;-81
2021/08/13 07:15:36;;;;;;;;;;;;;;;32.16;49.78;101483.20;1609266;87;20232;-81
2021/08/13 07:18:02;;;;;;;;;;;;;;;32.34;49.30;101480.63;1611664;87;20468;-81
2021/08/13 07:20:28;;;;;;;;;;;;;;;32.20;48.89;101476.08;1607269;87;20217;-81
2021/08/13 07:22:54;;;;;;;;;;;;;;;32.10;48.71;101477.08;1609010;87;20169;-81
2021/08/13 07:25:21;;;;;;;;;;;;;;;32.09;48.50;101474.06;1611042;87;20264;-81
2021/08/13 07:27:47;;;;;;;;;;;;;;;32.25;48.06;101482.34;1613559;87;20246;-81
2021/08/13 07:30:15;;;;;;;;;;;;;;;32.47;47.66;101486.52;1615389;87;20233;-81
2021/08/13 07:32:41;;;;;;;;;;;;;;;32.58;47.52;101480.98;1622081;87;20162;-81
2021/08/13 07:35:07;;;;;;;;;;;;;;;32.75;47.42;101474.02;1624596;87;20212;-81
2021/08/13 07:37:33;;;;;;;;;;;;;;;32.86;47.33;101476.52;1611007;87;20238;-81
2021/08/13 07:40:00;;;;;;;;;;;;;;;32.83;47.15;101477.66;1613472;87;20233;-81
2021/08/13 07:42:26;;;;;;;;;;;;;;;32.76;46.62;101464.99;1592998;87;20261;-81
2021/08/13 07:44:53;;;;;;;;;;;;;;;32.82;46.01;101465.74;1613546;87;20230;-81
2021/08/13 07:47:19;;;;;;;;;;;;;;;32.92;45.97;101457.16;1615403;88;20130;-81
2021/08/13 07:49:46;;;;;;;;;;;;;;;32.88;45.67;101458.45;1616023;87;20236;-81
2021/08/13 07:52:12;;;;;;;;;;;;;;;32.90;45.97;101454.63;1615791;87;20241;-81
2021/08/13 07:54:39;;;;;;;;;;;;;;;32.82;45.18;101455.88;1624114;87;20277;-81
2021/08/13 07:57:05;;;;;;;;;;;;;;;33.03;45.16;101450.27;1614878;87;20129;-81
2021/08/13 07:59:33;;;;;;;;;;;;;;;33.25;44.83;101447.66;1612863;87;20482;-80
2021/08/13 08:01:58;;;;;;;;;;;;;;;33.33;44.68;101446.41;1617421;87;20221;-81
2021/08/13 08:04:24;;;;;;;;;;;;;;;33.33;44.46;101444.22;1614632;87;20225;-81
2021/08/13 08:06:56;;;;;;;;;;;;;;;33.30;44.26;101443.19;1615556;87;20181;-81
2021/08/13 08:09:18;;;;;;;;;;;;;;;33.32;44.06;101440.70;1614011;87;20278;-81
2021/08/13 08:12:03;;;;;;;;;;;;;;;33.31;43.48;101445.72;1622454;86;20270;-81
2021/08/13 08:14:36;;;;;;;;;;;;;;;33.17;43.78;101443.55;1620362;87;20211;-81
2021/08/13 08:17:02;;;;;;;;;;;;;;;32.97;43.25;101441.48;1616702;87;20246;-81
2021/08/13 08:19:28;;;;;;;;;;;;;;;33.02;43.35;101447.23;1614780;87;20513;-82
2021/08/13 08:21:56;;;;;;;;;;;;;;;33.02;42.88;101447.73;1614010;87;20211;-81
2021/08/13 08:24:22;;;;;;;;;;;;;;;32.92;42.69;101441.58;1622098;87;20267;-81
2021/08/13 08:26:49;;;;;;;;;;;;;;;32.83;42.35;101441.48;1627844;87;20280;-81
2021/08/13 08:29:15;;;;;;;;;;;;;;;32.74;42.07;101438.84;1629366;86;20184;-81
2021/08/13 08:31:41;;;;;;;;;;;;;;;32.80;42.33;101438.25;1621160;86;20215;-81
2021/08/13 08:34:07;;;;;;;;;;;;;;;32.93;41.99;101435.23;1627121;86;20276;-81
2021/08/13 08:36:33;;;;;;;;;;;;;;;33.07;41.80;101435.56;1616293;86;20196;-81
2021/08/13 08:39:03;;;;;;;;;;;;;;;33.09;41.60;101442.12;1629879;86;20180;-81
2021/08/13 08:41:30;;;;;;;;;;;;;;;33.01;41.34;101441.53;1629439;86;20101;-81
2021/08/13 08:43:56;;;;;;;;;;;;;;;32.77;41.13;101431.36;1627191;86;20128;-81
2021/08/13 08:46:23;;;;;;;;;;;;;;;32.52;40.76;101431.54;1630137;86;20129;-81
2021/08/13 08:48:52;;;;;;;;;;;;;;;32.24;40.66;101426.63;1627992;86;20097;-81
2021/08/13 08:51:18;;;;;;;;;;;;;;;31.92;40.69;101430.14;1608124;86;20097;-79
2021/08/13 08:53:50;;;;;;;;;;;;;;;31.55;40.24;101430.86;1629089;86;20112;-79
2021/08/13 08:56:22;;;;;;;;;;;;;;;31.44;40.21;101438.17;1627041;86;20109;-79
2021/08/13 08:58:48;;;;;;;;;;;;;;;31.79;39.98;101437.61;1604005;86;20399;-78
2021/08/13 09:01:15;;;;;;;;;;;;;;;32.16;40.23;101441.23;1629817;86;20440;-78
2021/08/13 09:03:43;;;;;;;;;;;;;;;32.55;39.80;101439.77;1630581;86;20434;-78
2021/08/13 09:06:09;;;;;;;;;;;;;;;33.00;40.02;101440.34;1631222;86;20098;-78
2021/08/13 09:08:36;;;;;;;;;;;;;;;33.17;39.74;101437.69;1630315;86;20112;-78
2021/08/13 09:11:02;;;;;;;;;;;;;;;33.40;39.40;101427.38;1632009;86;20105;-78
2021/08/13 09:13:35;;;;;;;;;;;;;;;33.42;39.29;101426.72;1633517;86;20101;-78
2021/08/13 09:16:16;;;;;;;;;;;;;;;33.29;39.12;101420.89;1630211;86;20141;-78
2021/08/13 09:18:43;;;;;;;;;;;;;;;33.20;39.17;101429.34;1619879;87;20108;-78
2021/08/13 09:21:09;;;;;;;;;;;;;;;32.73;39.01;101425.11;1628403;86;20184;-78
2021/08/13 09:23:44;;;;;;;;;;;;;;;32.22;38.50;101421.10;1629972;87;20096;-78
2021/08/13 09:26:20;;;;;;;;;;;;;;;31.70;38.40;101418.44;1629414;86;20204;-78
2021/08/13 09:28:55;;;;;;;;;;;;;;;31.25;38.02;101417.61;1651413;86;20126;-78
2021/08/13 09:31:23;;;;;;;;;;;;;;;30.87;37.97;101420.55;1660116;85;20132;-78
2021/08/13 09:33:52;;;;;;;;;;;;;;;30.54;37.77;101424.85;1633241;86;20194;-78
2021/08/13 09:36:26;;;;;;;;;;;;;;;30.29;37.50;101426.98;1633124;86;20462;-79
2021/08/13 09:39:09;;;;;;;;;;;;;;;30.06;37.56;101430.80;1617581;87;20187;-79
2021/08/13 09:41:58;;;;;;;;;;;;;;;29.90;37.47;101430.37;1636951;86;20217;-79
2021/08/13 09:44:28;;;;;;;;;;;;;;;29.64;37.03;101424.06;1637046;87;20208;-79
2021/08/13 09:47:01;;;;;;;;;;;;;;;29.44;37.17;101424.91;1627747;87;20152;-79
2021/08/13 09:49:29;;;;;;;;;;;;;;;29.28;37.23;101427.09;1639759;86;20111;-79
2021/08/13 09:51:55;;;;;;;;;;;;;;;29.15;36.98;101422.41;1639996;87;20136;-79
2021/08/13 09:54:27;;;;;;;;;;;;;;;28.99;36.93;101419.69;1636991;86;20387;-79
2021/08/13 09:56:53;;;;;;;;;;;;;;;28.91;36.96;101413.28;1629978;87;20139;-79
2021/08/13 09:59:20;;;;;;;;;;;;;;;28.90;37.00;101411.59;1631702;86;20095;-79
2021/08/13 10:01:48;;;;;;;;;;;;;;;28.88;36.83;101409.05;1633667;86;20135;-80
2021/08/13 10:04:16;;;;;;;;;;;;;;;28.77;36.67;101401.52;1640545;87;20120;-80
2021/08/13 10:06:43;;;;;;;;;;;;;;;28.77;36.89;101406.85;1640361;86;20104;-80
2021/08/13 10:09:29;;;;;;;;;;;;;;;28.76;36.65;101411.33;1634822;86;20112;-80
2021/08/13 10:12:01;;;;;;;;;;;;;;;28.73;36.65;101413.39;1637102;87;20096;-80
2021/08/13 10:14:33;;;;;;;;;;;;;;;28.67;36.61;101413.39;1656350;85;20109;-80
2021/08/13 10:17:11;;;;;;;;;;;;;;;28.66;36.72;101414.36;1628971;87;20136;-80
2021/08/13 10:19:45;;;;;;;;;;;;;;;28.72;36.60;101409.87;1603534;87;20117;-80
2021/08/13 10:22:11;;;;;;;;;;;;;;;28.80;36.71;101411.93;1612701;88;20136;-80
2021/08/13 10:24:38;;;;;;;;;;;;;;;28.84;36.57;101403.61;1616117;87;20116;-80
2021/08/13 10:27:05;;;;;;;;;;;;;;;28.87;36.63;101401.19;1606264;87;20111;-80
2021/08/13 10:29:31;;;;;;;;;;;;;;;28.90;36.37;101387.14;1595064;87;20158;-80
2021/08/13 10:32:02;;;;;;;;;;;;;;;28.92;36.61;101395.85;1616552;88;20104;-80
2021/08/13 10:34:28;;;;;;;;;;;;;;;28.93;36.36;101387.38;1616396;87;20136;-80
2021/08/13 10:36:55;;;;;;;;;;;;;;;28.96;36.49;101389.31;1616229;87;20128;-80
2021/08/13 10:39:23;;;;;;;;;;;;;;;29.03;36.46;101395.47;1606521;88;20111;-80
2021/08/13 10:41:51;;;;;;;;;;;;;;;29.02;36.39;101393.30;1616497;87;20107;-80
2021/08/13 10:44:20;;;;;;;;;;;;;;;28.95;36.27;101388.95;1608558;87;20106;-80
2021/08/13 10:46:46;;;;;;;;;;;;;;;28.93;36.40;101378.06;1602338;87;20113;-80
2021/08/13 10:49:14;;;;;;;;;;;;;;;28.97;36.51;101383.02;1591325;87;20138;-80
2021/08/13 10:51:40;;;;;;;;;;;;;;;28.93;36.47;101382.05;1591109;88;20101;-80
2021/08/13 10:54:13;;;;;;;;;;;;;;;28.92;36.36;101382.53;1608797;88;20104;-80
2021/08/13 10:56:44;;;;;;;;;;;;;;;28.94;36.25;101375.27;1637032;87;20112;-80
2021/08/13 10:59:42;;;;;;;;;;;;;;;28.97;36.29;101376.36;1631730;86;20144;-80
2021/08/13 11:02:14;;;;;;;;;;;;;;;29.06;36.40;101380.09;1623425;87;20129;-80
2021/08/13 11:04:43;;;;;;;;;;;;;;;29.14;36.40;101372.28;1642764;87;20109;-80
2021/08/13 11:07:10;;;;;;;;;;;;;;;29.21;36.29;101369.96;1632612;87;20130;-80
2021/08/13 11:09:40;;;;;;;;;;;;;;;29.25;36.41;101366.08;1635594;87;20522;-80
2021/08/13 11:12:14;;;;;;;;;;;;;;;29.31;36.19;101371.74;1637672;87;20088;-80
2021/08/13 11:14:53;;;;;;;;;;;;;;;29.34;36.09;101371.98;1595761;87;20107;-80
2021/08/13 11:17:42;;;;;;;;;;;;;;;29.35;36.02;101371.48;1629297;86;20107;-80
2021/08/13 11:20:11;;;;;;;;;;;;;;;29.35;36.02;101367.01;1616920;87;20129;-80
2021/08/13 11:22:38;;;;;;;;;;;;;;;29.41;36.21;101359.87;1637035;87;20100;-80
2021/08/13 11:25:12;;;;;;;;;;;;;;;29.40;36.20;101352.81;1636190;86;20107;-80
2021/08/13 11:27:38;;;;;;;;;;;;;;;29.39;36.22;101353.79;1627602;87;20089;-80
2021/08/13 11:30:39;;;;;;;;;;;;;;;29.38;36.09;101349.44;1627837;86;20100;-80
2021/08/13 11:33:28;;;;;;;;;;;;;;;29.36;36.11;101350.05;1629628;86;20145;-80
2021/08/13 11:35:54;;;;;;;;;;;;;;;29.32;35.96;101352.61;1631275;86;20101;-80
2021/08/13 11:38:45;;;;;;;;;;;;;;;29.30;35.91;101351.89;1628618;87;20164;-80
2021/08/13 11:41:25;;;;;;;;;;;;;;;29.29;35.79;101338.20;1605671;88;20170;-80
2021/08/13 11:43:52;;;;;;;;;;;;;;;29.26;35.92;101333.13;1622649;88;20188;-80
2021/08/13 11:46:32;;;;;;;;;;;;;;;29.27;35.97;101338.82;1610848;87;20118;-80
2021/08/13 11:49:01;;;;;;;;;;;;;;;29.28;35.92;101327.19;1588167;89;20168;-80
2021/08/13 11:51:28;;;;;;;;;;;;;;;29.33;35.92;101328.98;1610221;87;20133;-80
2021/08/13 11:53:55;;;;;;;;;;;;;;;29.37;35.94;101318.43;1622955;88;20136;-80
2021/08/13 11:56:25;;;;;;;;;;;;;;;29.33;35.64;101320.51;1627097;88;20207;-80
2021/08/13 11:59:06;;;;;;;;;;;;;;;29.33;35.67;101330.31;1620310;88;20435;-80
2021/08/13 12:01:52;;;;;;;;;;;;;;;29.31;35.85;101334.44;1609855;87;20109;-80
2021/08/13 12:04:20;;;;;;;;;;;;;;;29.22;35.70;101345.02;1623747;87;20452;-80
2021/08/13 12:07:05;;;;;;;;;;;;;;;29.11;35.62;101356.59;1607435;87;20135;-80
2021/08/13 12:09:39;;;;;;;;;;;;;;;29.09;35.62;101351.03;1604070;87;20294;-80
2021/08/13 12:12:08;;;;;;;;;;;;;;;29.12;35.84;101342.75;1614101;86;20195;-80
2021/08/13 12:14:35;;;;;;;;;;;;;;;29.14;35.49;101332.33;1628986;86;20767;-80
2021/08/13 12:17:01;;;;;;;;;;;;;;;29.12;35.56;101316.96;1643694;85;20144;-80
2021/08/13 12:19:36;;;;;;;;;;;;;;;29.12;35.62;101317.45;1642639;86;20189;-80
2021/08/13 12:22:04;;;;;;;;;;;;;;;29.10;35.50;101322.09;1644630;86;20109;-79
2021/08/13 12:24:33;;;;;;;;;;;;;;;29.11;35.54;101316.63;1644388;86;20117;-78
2021/08/13 12:27:01;;;;;;;;;;;;;;;29.07;35.47;101310.36;1644594;86;20401;-79
2021/08/13 12:29:30;;;;;;;;;;;;;;;29.06;35.51;101306.84;1644374;86;20098;-79
2021/08/13 12:32:02;;;;;;;;;;;;;;;29.11;35.47;101313.97;1644267;85;20102;-79
2021/08/13 12:34:30;;;;;;;;;;;;;;;29.13;35.40;101308.48;1642825;86;20544;-79
2021/08/13 12:37:08;;;;;;;;;;;;;;;29.13;35.33;101307.16;1648692;85;20109;-79
2021/08/13 12:39:38;;;;;;;;;;;;;;;29.19;35.49;101311.48;1642790;85;20253;-79
2021/08/13 12:42:09;;;;;;;;;;;;;;;29.27;35.49;101313.02;1603193;88;20103;-79
2021/08/13 12:44:36;;;;;;;;;;;;;;;29.35;35.40;101316.87;1630109;86;20441;-79